createdAt,value
2019-01-13T00:01:53.283Z,35.02
2019-01-13T00:04:57.760Z,34.99
2019-01-13T00:08:02.293Z,35.03
2019-01-13T00:11:05.818Z,35.08
2019-01-13T00:14:09.308Z,35.10
2019-01-13T00:17:12.798Z,35.19
2019-01-13T00:20:16.284Z,35.14
2019-01-13T00:23:19.793Z,35.22
2019-01-13T00:26:25.384Z,35.17
2019-01-13T00:29:28.851Z,35.33
2019-01-13T00:32:32.380Z,35.34
2019-01-13T00:35:36.887Z,35.38
2019-01-13T00:38:41.358Z,35.47
2019-01-13T00:41:47.150Z,35.45
2019-01-13T00:44:50.641Z,35.49
2019-01-13T00:47:54.106Z,35.49
2019-01-13T00:50:57.609Z,35.52
2019-01-13T00:54:01.152Z,35.52
2019-01-13T00:57:04.651Z,35.58
2019-01-13T01:00:11.441Z,35.59
2019-01-13T01:03:16.936Z,35.59
2019-01-13T01:06:20.383Z,35.64
2019-01-13T01:09:23.898Z,35.67
2019-01-13T01:12:27.494Z,35.69
2019-01-13T01:15:30.969Z,35.75
2019-01-13T01:18:35.506Z,35.74
2019-01-13T01:21:39.024Z,35.73
2019-01-13T01:24:42.525Z,35.73
2019-01-13T01:27:45.970Z,35.78
2019-01-13T01:30:49.422Z,35.81
2019-01-13T01:33:53.225Z,35.83
2019-01-13T01:36:56.742Z,35.78
2019-01-13T01:40:00.248Z,35.82
2019-01-13T01:43:03.726Z,35.85
2019-01-13T01:46:07.270Z,35.88
2019-01-13T01:49:10.739Z,35.89
2019-01-13T01:52:16.274Z,35.91
2019-01-13T01:55:20.073Z,35.94
2019-01-13T01:58:23.595Z,35.93
2019-01-13T02:01:27.095Z,35.93
2019-01-13T02:04:30.692Z,36.00
2019-01-13T02:07:34.223Z,36.04
2019-01-13T02:10:37.654Z,35.99
2019-01-13T02:13:42.218Z,36.01
2019-01-13T02:16:45.706Z,36.02
2019-01-13T02:19:49.201Z,36.03
2019-01-13T02:22:53.738Z,36.06
2019-01-13T02:25:57.168Z,36.10
2019-01-13T02:29:00.656Z,36.03
2019-01-13T02:32:04.134Z,36.11
2019-01-13T02:35:07.933Z,36.08
2019-01-13T02:38:11.450Z,36.12
2019-01-13T02:41:15.962Z,36.03
2019-01-13T02:44:19.468Z,36.11
2019-01-13T02:47:22.990Z,36.10
2019-01-13T02:50:26.461Z,36.17
2019-01-13T02:53:29.970Z,36.13
2019-01-13T02:56:34.501Z,36.15
2019-01-13T02:59:38.006Z,36.18
2019-01-13T03:02:41.510Z,36.18
2019-01-13T03:05:45.005Z,36.20
2019-01-13T03:08:48.516Z,36.21
2019-01-13T03:11:53.241Z,36.25
2019-01-13T03:14:56.723Z,36.29
2019-01-13T03:18:01.271Z,36.24
2019-01-13T03:21:04.705Z,36.27
2019-01-13T03:24:08.159Z,36.25
2019-01-13T03:27:11.778Z,36.25
2019-01-13T03:30:20.058Z,36.29
2019-01-13T03:33:24.511Z,36.33
2019-01-13T03:36:27.980Z,36.33
2019-01-13T03:39:31.512Z,36.31
2019-01-13T03:42:36.018Z,36.31
2019-01-13T03:45:39.504Z,36.32
2019-01-13T03:48:43.025Z,36.33
2019-01-13T03:51:48.576Z,36.39
2019-01-13T03:54:52.022Z,36.37
2019-01-13T03:57:55.474Z,36.33
2019-01-13T04:00:58.970Z,36.39
2019-01-13T04:04:02.482Z,36.40
2019-01-13T04:07:05.969Z,36.42
2019-01-13T04:10:10.081Z,36.33
2019-01-13T04:13:13.610Z,36.36
2019-01-13T04:16:17.082Z,36.36
2019-01-13T04:19:20.586Z,36.40
2019-01-13T04:22:24.120Z,36.40
2019-01-13T04:25:27.560Z,36.43
2019-01-13T04:28:31.196Z,36.46
2019-01-13T04:31:34.631Z,36.43
2019-01-13T04:34:38.093Z,36.42
2019-01-13T04:37:41.697Z,36.46
2019-01-13T04:40:47.258Z,36.46
2019-01-13T04:43:50.787Z,36.44
2019-01-13T04:46:56.308Z,36.52
2019-01-13T04:49:59.907Z,36.45
2019-01-13T04:53:03.566Z,36.49
2019-01-13T04:56:08.007Z,36.48
2019-01-13T04:59:12.547Z,36.45
2019-01-13T05:02:16.085Z,36.50
2019-01-13T05:05:19.550Z,36.55
2019-01-13T05:08:23.062Z,36.54
2019-01-13T05:11:27.588Z,36.49
2019-01-13T05:14:31.083Z,36.50
2019-01-13T05:17:34.586Z,36.50
2019-01-13T05:20:40.138Z,36.58
2019-01-13T05:23:43.447Z,36.55
2019-01-13T05:26:46.907Z,36.58
2019-01-13T05:29:50.427Z,36.54
2019-01-13T05:32:54.949Z,36.56
2019-01-13T05:35:58.461Z,36.53
2019-01-13T05:39:04.392Z,36.61
2019-01-13T05:42:09.953Z,36.56
2019-01-13T05:45:14.682Z,36.61
2019-01-13T05:48:19.210Z,36.62
2019-01-13T05:51:22.706Z,36.61
2019-01-13T05:54:26.228Z,36.63
2019-01-13T05:57:29.656Z,36.62
2019-01-13T06:00:36.943Z,36.65
2019-01-13T06:03:40.421Z,36.63
2019-01-13T06:06:43.891Z,36.64
2019-01-13T06:09:47.406Z,36.67
2019-01-13T06:12:50.888Z,36.65
2019-01-13T06:15:54.412Z,36.61
2019-01-13T06:18:57.875Z,36.68
2019-01-13T06:22:02.140Z,36.66
2019-01-13T06:25:05.726Z,36.67
2019-01-13T06:28:15.061Z,36.71
2019-01-13T06:31:18.606Z,36.68
2019-01-13T06:34:22.070Z,36.66
2019-01-13T06:37:25.557Z,36.71
2019-01-13T06:40:29.181Z,36.69
2019-01-13T06:43:32.677Z,36.73
2019-01-13T06:46:36.151Z,36.72
2019-01-13T06:49:39.594Z,36.72
2019-01-13T06:52:43.073Z,36.75
2019-01-13T06:55:46.560Z,36.71
2019-01-13T06:58:50.203Z,36.71
2019-01-13T07:01:54.683Z,36.72
2019-01-13T07:04:58.246Z,36.78
2019-01-13T07:08:01.695Z,36.75
2019-01-13T07:11:05.133Z,36.74
2019-01-13T07:14:08.597Z,36.79
2019-01-13T07:17:12.096Z,36.75
2019-01-13T07:20:17.439Z,36.74
2019-01-13T07:23:20.938Z,36.77
2019-01-13T07:26:24.435Z,36.81
2019-01-13T07:29:27.941Z,36.80
2019-01-13T07:32:31.541Z,36.82
2019-01-13T07:35:34.977Z,36.82
2019-01-13T07:38:38.441Z,36.80
2019-01-13T07:41:41.942Z,36.82
2019-01-13T07:44:45.443Z,36.80
2019-01-13T07:47:49.055Z,36.79
2019-01-13T07:50:52.547Z,36.76
2019-01-13T07:53:56.038Z,36.75
2019-01-13T07:56:59.582Z,36.76
2019-01-13T08:00:03.052Z,36.74
2019-01-13T08:03:07.156Z,36.74
2019-01-13T08:06:10.610Z,36.79
2019-01-13T08:09:14.072Z,36.75
2019-01-13T08:12:17.558Z,36.73
2019-01-13T08:15:21.244Z,36.74
2019-01-13T08:18:24.681Z,36.77
2019-01-13T08:21:28.141Z,36.74
2019-01-13T08:24:31.675Z,36.76
2019-01-13T08:27:35.152Z,36.83
2019-01-13T08:30:39.704Z,36.78
2019-01-13T08:33:43.142Z,36.74
2019-01-13T08:36:46.596Z,36.78
2019-01-13T08:39:50.124Z,36.76
2019-01-13T08:42:53.693Z,36.77
2019-01-13T08:45:58.235Z,36.78
2019-01-13T08:49:02.757Z,36.81
2019-01-13T08:52:06.255Z,36.83
2019-01-13T08:55:10.788Z,36.78
2019-01-13T08:58:14.277Z,36.73
2019-01-13T09:01:17.791Z,36.56
2019-01-13T09:04:22.360Z,36.44
2019-01-13T09:07:25.825Z,36.48
2019-01-13T09:10:30.413Z,36.56
2019-01-13T09:13:34.171Z,36.62
2019-01-13T09:16:37.643Z,36.64
2019-01-13T09:19:41.356Z,36.63
2019-01-13T09:22:44.942Z,36.62
2019-01-13T09:25:50.517Z,36.65
2019-01-13T09:28:53.948Z,36.61
2019-01-13T09:31:57.502Z,36.61
2019-01-13T09:35:01.004Z,36.59
2019-01-13T09:38:04.581Z,36.62
2019-01-13T09:41:08.215Z,36.64
2019-01-13T09:44:11.711Z,36.59
2019-01-13T09:47:17.261Z,36.59
2019-01-13T09:50:21.140Z,36.59
2019-01-13T09:53:25.704Z,36.66
2019-01-13T09:56:30.211Z,36.69
2019-01-13T09:59:33.765Z,36.70
2019-01-13T10:02:38.238Z,36.71
2019-01-13T10:05:41.742Z,36.66
2019-01-13T10:08:45.272Z,36.66
2019-01-13T10:11:49.763Z,36.60
2019-01-13T10:14:53.264Z,36.54
2019-01-13T10:17:56.775Z,36.51
2019-01-13T10:21:00.277Z,36.47
2019-01-13T10:24:04.822Z,36.37
2019-01-13T10:27:08.413Z,36.32
2019-01-13T10:30:15.108Z,36.36
2019-01-13T10:33:18.589Z,36.36
2019-01-13T10:36:22.094Z,36.40
2019-01-13T10:39:25.580Z,36.30
2019-01-13T10:42:29.115Z,36.37
2019-01-13T10:45:32.576Z,36.47
2019-01-13T10:48:36.171Z,36.50
2019-01-13T10:51:39.776Z,36.48
2019-01-13T10:54:43.594Z,36.41
2019-01-13T10:57:48.328Z,36.29
2019-01-13T11:00:51.960Z,36.42
2019-01-13T11:03:55.449Z,36.39
2019-01-13T11:06:59.041Z,36.54
2019-01-13T11:10:02.710Z,36.54
2019-01-13T11:13:06.403Z,36.55
2019-01-13T11:16:10.082Z,36.49
2019-01-13T11:19:14.673Z,36.57
2019-01-13T11:22:18.476Z,36.57
2019-01-13T11:25:21.982Z,36.52
2019-01-13T11:28:25.596Z,36.58
2019-01-13T11:31:30.217Z,36.60
2019-01-13T11:34:33.736Z,36.49
2019-01-13T11:37:38.194Z,36.50
2019-01-13T11:40:41.770Z,36.55
2019-01-13T11:43:45.224Z,36.59
2019-01-13T11:46:48.714Z,36.65
2019-01-13T11:49:52.278Z,36.62
2019-01-13T11:53:00.085Z,36.56
2019-01-13T11:56:03.941Z,36.67
2019-01-13T11:59:07.554Z,36.70
2019-01-13T12:02:11.210Z,36.76
2019-01-13T12:05:14.818Z,36.73
2019-01-13T12:08:18.341Z,36.78
2019-01-13T12:11:21.828Z,36.78
2019-01-13T12:14:25.346Z,36.72
2019-01-13T12:17:29.948Z,36.71
2019-01-13T12:20:33.434Z,36.74
2019-01-13T12:23:38.028Z,36.69
2019-01-13T12:26:41.676Z,36.73
2019-01-13T12:29:45.181Z,36.70
2019-01-13T12:32:48.726Z,36.75
2019-01-13T12:35:52.210Z,36.73
2019-01-13T12:38:55.887Z,36.70
2019-01-13T12:41:59.387Z,36.70
2019-01-13T12:45:07.144Z,36.70
2019-01-13T12:48:10.761Z,36.73
2019-01-13T12:51:14.526Z,36.78
2019-01-13T12:54:19.004Z,36.79
2019-01-13T12:57:22.497Z,36.84
2019-01-13T13:00:25.958Z,36.77
2019-01-13T13:03:31.810Z,36.79
2019-01-13T13:06:34.761Z,36.70
2019-01-13T13:09:38.338Z,36.71
2019-01-13T13:12:41.902Z,36.72
2019-01-13T13:15:45.436Z,36.80
2019-01-13T13:18:50.059Z,36.85
2019-01-13T13:21:53.645Z,36.83
2019-01-13T13:24:57.255Z,36.78
2019-01-13T13:28:00.858Z,36.74
2019-01-13T13:31:04.351Z,36.71
2019-01-13T13:34:08.004Z,36.66
2019-01-13T13:37:13.748Z,36.70
2019-01-13T13:40:21.767Z,36.78
2019-01-13T13:43:33.672Z,36.91
2019-01-13T13:46:37.358Z,36.91
2019-01-13T13:49:41.091Z,36.92
2019-01-13T13:52:45.708Z,36.92
2019-01-13T13:55:50.259Z,36.84
2019-01-13T13:58:54.002Z,36.82
2019-01-13T14:01:57.706Z,36.86
2019-01-13T14:05:01.416Z,36.82
2019-01-13T14:08:07.127Z,36.87
2019-01-13T14:11:10.644Z,36.82
2019-01-13T14:14:16.185Z,36.84
2019-01-13T14:17:20.028Z,36.84
2019-01-13T14:20:23.548Z,36.82
2019-01-13T14:23:29.122Z,36.75
2019-01-13T14:26:32.597Z,36.76
2019-01-13T14:29:36.114Z,36.80
2019-01-13T14:32:39.649Z,36.68
2019-01-13T14:35:43.305Z,36.72
2019-01-13T14:38:46.788Z,36.63
2019-01-13T14:41:50.324Z,36.61
2019-01-13T14:44:53.968Z,36.68
2019-01-13T14:47:57.587Z,36.70
2019-01-13T14:51:01.102Z,36.65
2019-01-13T14:54:04.742Z,36.70
2019-01-13T14:57:08.232Z,36.69
2019-01-13T15:00:20.205Z,36.67
2019-01-13T15:03:23.852Z,36.70
2019-01-13T15:06:27.410Z,36.68
2019-01-13T15:09:31.089Z,36.66
2019-01-13T15:12:34.727Z,36.66
2019-01-13T15:15:38.269Z,36.70
2019-01-13T15:18:41.747Z,36.68
2019-01-13T15:21:45.292Z,36.65
2019-01-13T15:24:49.061Z,36.66
2019-01-13T15:27:52.755Z,36.65
2019-01-13T15:30:56.249Z,36.70
2019-01-13T15:34:07.199Z,36.70
2019-01-13T15:37:07.134Z,36.74
2019-01-13T15:40:12.452Z,36.78
2019-01-13T15:43:16.184Z,36.79
2019-01-13T15:46:21.109Z,36.79
2019-01-13T15:49:24.769Z,36.77
2019-01-13T15:52:28.430Z,36.73
2019-01-13T15:55:32.011Z,36.77
2019-01-13T15:58:35.670Z,36.73
2019-01-13T16:01:39.148Z,36.73
2019-01-13T16:04:42.679Z,36.76
2019-01-13T16:07:46.139Z,36.82
2019-01-13T16:10:49.727Z,36.84
2019-01-13T16:13:53.339Z,36.87
2019-01-13T16:16:57.883Z,36.80
2019-01-13T16:20:01.371Z,36.82
2019-01-13T16:23:05.079Z,36.76
2019-01-13T16:26:09.589Z,36.81
2019-01-13T16:29:13.122Z,36.90
2019-01-13T16:32:16.601Z,36.97
2019-01-13T16:35:23.246Z,36.97
2019-01-13T16:38:26.916Z,36.96
2019-01-13T16:41:30.388Z,36.94
2019-01-13T16:44:33.901Z,36.95
2019-01-13T16:47:37.373Z,36.93
2019-01-13T16:50:40.897Z,36.91
2019-01-13T16:53:44.388Z,36.92
2019-01-13T16:56:48.904Z,36.91
2019-01-13T16:59:52.392Z,36.92
2019-01-13T17:02:55.891Z,36.93
2019-01-13T17:05:59.413Z,36.90
2019-01-13T17:09:04.256Z,36.96
2019-01-13T17:12:07.676Z,36.93
2019-01-13T17:15:14.472Z,36.93
2019-01-13T17:18:18.937Z,36.88
2019-01-13T17:21:22.474Z,36.94
2019-01-13T17:24:26.157Z,36.93
2019-01-13T17:27:29.675Z,36.91
2019-01-13T17:30:36.523Z,36.90
2019-01-13T17:33:40.137Z,36.89
2019-01-13T17:36:44.655Z,36.91
2019-01-13T17:39:50.245Z,36.96
2019-01-13T17:42:53.851Z,36.94
2019-01-13T17:45:57.718Z,36.96
2019-01-13T17:49:01.356Z,36.93
2019-01-13T17:52:06.974Z,36.94
2019-01-13T17:55:13.221Z,36.93
2019-01-13T17:58:16.738Z,36.94
2019-01-13T18:01:31.709Z,36.93
2019-01-13T18:04:35.237Z,36.92
2019-01-13T18:07:38.710Z,36.90
2019-01-13T18:10:42.293Z,36.96
2019-01-13T18:13:46.766Z,36.99
2019-01-13T18:16:51.267Z,36.92
2019-01-13T18:19:54.767Z,36.89
2019-01-13T18:22:59.501Z,36.93
2019-01-13T18:26:03.152Z,36.91
2019-01-13T18:29:06.718Z,36.92
2019-01-13T18:32:10.218Z,36.89
2019-01-13T18:35:16.887Z,36.96
2019-01-13T18:38:22.558Z,36.96
2019-01-13T18:41:26.060Z,36.96
2019-01-13T18:44:30.557Z,36.92
2019-01-13T18:47:34.127Z,37.01
2019-01-13T18:50:37.589Z,37.08
2019-01-13T18:53:41.066Z,37.04
2019-01-13T18:56:44.572Z,36.99
2019-01-13T18:59:48.125Z,37.07
2019-01-13T19:02:51.757Z,36.98
2019-01-13T19:05:55.269Z,36.97
2019-01-13T19:09:06.865Z,36.96
2019-01-13T19:12:10.310Z,36.98
2019-01-13T19:15:13.764Z,36.97
2019-01-13T19:18:17.264Z,37.04
2019-01-13T19:21:20.756Z,37.07
2019-01-13T19:24:24.327Z,37.01
2019-01-13T19:27:27.972Z,37.00
2019-01-13T19:30:32.511Z,37.06
2019-01-13T19:33:38.041Z,37.04
2019-01-13T19:36:41.558Z,37.02
2019-01-13T19:39:45.057Z,36.98
2019-01-13T19:42:48.627Z,37.06
2019-01-13T19:45:52.262Z,37.10
2019-01-13T19:48:55.784Z,37.10
2019-01-13T19:52:00.285Z,37.07
2019-01-13T19:55:04.378Z,37.06
2019-01-13T19:58:08.838Z,37.13
2019-01-13T20:01:13.468Z,37.15
2019-01-13T20:04:16.939Z,37.17
2019-01-13T20:07:20.489Z,37.24
2019-01-13T20:10:23.944Z,37.13
2019-01-13T20:13:27.378Z,37.17
2019-01-13T20:16:30.972Z,37.28
2019-01-13T20:19:35.461Z,37.25
2019-01-13T20:22:38.975Z,37.07
2019-01-13T20:25:42.539Z,37.16
2019-01-13T20:28:46.176Z,37.16
2019-01-13T20:31:51.740Z,37.14
2019-01-13T20:34:55.241Z,37.19
2019-01-13T20:38:00.775Z,37.19
2019-01-13T20:41:04.342Z,37.23
2019-01-13T20:44:07.788Z,37.23
2019-01-13T20:47:13.359Z,37.24
2019-01-13T20:50:16.870Z,37.23
2019-01-13T20:53:20.349Z,37.30
2019-01-13T20:56:24.900Z,37.32
2019-01-13T20:59:28.362Z,37.26
2019-01-13T21:02:31.886Z,37.35
2019-01-13T21:05:35.396Z,37.37
2019-01-13T21:08:38.865Z,37.41
2019-01-13T21:11:42.320Z,37.37
2019-01-13T21:14:45.768Z,37.41
2019-01-13T21:17:49.351Z,37.47
2019-01-13T21:20:52.899Z,37.44
2019-01-13T21:23:58.416Z,37.47
2019-01-13T21:27:01.916Z,37.47
2019-01-13T21:30:08.511Z,37.44
2019-01-13T21:33:11.960Z,37.49
2019-01-13T21:36:15.527Z,37.49
2019-01-13T21:39:24.946Z,37.44
2019-01-13T21:42:28.442Z,37.49
2019-01-13T21:45:33.990Z,37.54
2019-01-13T21:48:37.494Z,37.58
2019-01-13T21:51:40.983Z,37.56
2019-01-13T21:54:44.475Z,37.53
2019-01-13T21:57:47.999Z,37.56
2019-01-13T22:00:52.532Z,37.57
2019-01-13T22:03:56.075Z,37.60
2019-01-13T22:06:59.729Z,37.62
2019-01-13T22:10:03.235Z,37.59
2019-01-13T22:13:08.773Z,37.63
2019-01-13T22:16:14.354Z,37.57
2019-01-13T22:19:17.917Z,37.63
2019-01-13T22:22:21.435Z,37.61
2019-01-13T22:25:33.005Z,37.60
2019-01-13T22:28:36.515Z,37.61
2019-01-13T22:31:41.061Z,37.59
2019-01-13T22:34:44.547Z,37.67
2019-01-13T22:37:55.883Z,37.61
2019-01-13T22:40:59.954Z,37.68
2019-01-13T22:44:05.487Z,37.70
2019-01-13T22:47:08.919Z,37.70
2019-01-13T22:50:12.993Z,37.67
2019-01-13T22:53:16.493Z,37.68
2019-01-13T22:56:20.005Z,37.65
2019-01-13T22:59:23.457Z,37.74
2019-01-13T23:02:27.151Z,37.69
2019-01-13T23:05:30.699Z,37.71
2019-01-13T23:08:34.325Z,37.77
2019-01-13T23:11:38.016Z,37.75
2019-01-13T23:14:41.451Z,37.75
2019-01-13T23:17:45.038Z,37.78
2019-01-13T23:20:50.112Z,37.73
2019-01-13T23:23:53.670Z,37.72
2019-01-13T23:26:58.130Z,37.73
2019-01-13T23:30:01.674Z,37.75
2019-01-13T23:33:05.190Z,37.75
2019-01-13T23:36:08.685Z,37.75
2019-01-13T23:39:14.234Z,37.80
2019-01-13T23:42:17.732Z,37.77
2019-01-13T23:45:22.253Z,37.78
2019-01-13T23:48:25.765Z,37.78
2019-01-13T23:51:29.269Z,37.81
2019-01-13T23:54:32.692Z,37.77
2019-01-13T23:57:36.294Z,37.80
